METAR Data
IDs: Format: Raw Decoded Include TAF

Data at: 0908 UTC 07 Dec 2021

K2J9 070735Z AUTO 18005KT 3SM BR BKN003 BKN120 16/16 A3003 RMK AO2
K2J9 070715Z AUTO 00000KT 3SM BR BKN002 16/16 A3003 RMK AO2
K2J9 070655Z AUTO 00000KT 7SM BKN002 16/16 A3003 RMK AO2
K2J9 070635Z AUTO 00000KT 9SM OVC002 16/16 A3004 RMK AO2
K2J9 070615Z AUTO 00000KT 10SM OVC003 16/16 A3005 RMK AO2
K2J9 070555Z AUTO 00000KT 10SM OVC003 16/16 A3005 RMK AO2
K2J9 070535Z AUTO 00000KT 10SM OVC003 16/16 A3006 RMK AO2
K2J9 070515Z AUTO 00000KT 10SM OVC003 16/16 A3007 RMK AO2
K2J9 070455Z AUTO 00000KT 10SM BKN003 BKN039 OVC055 16/16 A3008 RMK AO2
K2J9 070435Z AUTO 12004KT 10SM SCT004 BKN039 OVC075 16/17 A3008 RMK AO2
K2J9 070415Z AUTO 00000KT 4SM BR BKN004 BKN026 OVC065 17/17 A3010 RMK AO2
K2J9 070355Z AUTO 11003KT 2SM RA SCT029 BKN035 OVC070 17/17 A3010 RMK AO2
K2J9 070335Z AUTO VRB05KT 4SM -RA FEW005 SCT028 BKN042 17/17 A3011 RMK AO2
K2J9 070315Z AUTO 06005KT 3SM -RA FEW005 SCT026 BKN036 17/17 A3011 RMK AO2
K2J9 070255Z AUTO 05005KT 3SM RA FEW004 SCT013 BKN041 17/17 A3012 RMK AO2
K2J9 070235Z AUTO 03003KT 4SM -RA FEW008 SCT023 BKN032 17/17 A3012 RMK AO2
K2J9 070215Z AUTO 00000KT 5SM -DZ FEW005 SCT012 BKN024 17/17 A3012 RMK AO2
K2J9 070155Z AUTO VRB03G12KT 5SM -RA FEW004 SCT012 BKN016 17/17 A3012 RMK AO2
K2J9 070135Z AUTO 36007G15KT 310V060 2 1/2SM RA FEW009 SCT017 BKN024 18/17 A3012 RMK AO2 VIS 1V5
K2J9 070115Z AUTO 00000KT 10SM SCT023 BKN035 OVC044 19/18 A3009 RMK AO2
K2J9 070055Z AUTO 00000KT 10SM SCT028 OVC035 19/18 A3008 RMK AO2
K2J9 070035Z AUTO 00000KT 10SM BKN027 BKN033 OVC038 19/18 A3009 RMK AO2
K2J9 070015Z AUTO 00000KT 10SM SCT023 BKN030 BKN036 19/18 A3008 RMK AO2
K2J9 062355Z AUTO 19003KT 10SM BKN026 OVC032 20/18 A3007 RMK AO2
K2J9 062335Z AUTO 20004KT 10SM FEW029 BKN035 OVC046 21/18 A3007 RMK AO2
K2J9 062315Z AUTO 00000KT 10SM BKN034 OVC040 21/19 A3006 RMK AO2
K2J9 062255Z AUTO 00000KT 10SM BKN039 BKN110 21/18 A3005 RMK AO2
K2J9 062235Z AUTO 20003KT 10SM BKN110 22/18 A3004 RMK AO2
K2J9 062215Z AUTO 22003KT 10SM BKN110 22/18 A3004 RMK AO2
K2J9 062155Z AUTO 18008KT 10SM CLR 22/19 A3002 RMK AO2
K2J9 062135Z AUTO 18007KT 10SM FEW041 BKN110 23/18 A3003 RMK AO2
K2J9 062115Z AUTO 20004KT 10SM SCT041 OVC100 23/18 A3004 RMK AO2
K2J9 062055Z AUTO 00000KT 10SM OVC095 23/18 A3004 RMK AO2
K2J9 062035Z AUTO 00000KT 10SM FEW047 OVC095 23/18 A3004 RMK AO2
K2J9 062015Z AUTO 21006KT 10SM FEW031 BKN047 OVC095 24/18 A3005 RMK AO2
K2J9 061955Z AUTO 22003KT 10SM FEW027 SCT031 BKN050 24/18 A3005 RMK AO2
K2J9 061935Z AUTO 24005KT 10SM SCT027 BKN060 OVC090 24/18 A3005 RMK AO2
K2J9 061915Z AUTO VRB06KT 220V280 10SM SCT026 SCT030 OVC090 24/18 A3005 RMK AO2
K2J9 061855Z AUTO 19004KT 10SM BKN025 BKN033 OVC090 23/18 A3006 RMK AO2
K2J9 061835Z AUTO 24004KT 10SM SCT024 BKN028 OVC090 23/18 A3007 RMK AO2
K2J9 061815Z AUTO 23007KT 10SM BKN026 BKN033 OVC090 23/18 A3008 RMK AO2
K2J9 061755Z AUTO 22006KT 10SM BKN024 BKN090 22/17 A3009 RMK AO2 LTG DSNT W
K2J9 061735Z AUTO 25003KT 10SM BKN022 BKN027 BKN090 22/18 A3010 RMK AO2
K2J9 061715Z AUTO 25006KT 10SM SCT021 BKN090 22/17 A3011 RMK AO2 LTG DSNT NW
K2J9 061655Z AUTO 22005KT 10SM CLR 22/17 A3012 RMK AO2
K2J9 061635Z AUTO 19006KT 10SM CLR 21/17 A3011 RMK AO2
K2J9 061615Z AUTO VRB06G13KT 10SM CLR 21/17 A3012 RMK AO2
K2J9 061555Z AUTO 18008KT 10SM FEW090 20/17 A3011 RMK AO2
K2J9 061535Z AUTO VRB05KT 10SM 19/17 A3013 RMK AO2 LTG DSNT W
K2J9 061515Z AUTO 17006KT 17/17 A3013 RMK AO2 PWINO
K2J9 061455Z AUTO 17004KT 10SM FEW003 15/15 A3013 RMK AO2 LTG DSNT W
K2J9 061435Z AUTO 00000KT 7SM OVC002 13/14 A3013 RMK AO2
K2J9 061415Z AUTO 00000KT 1/4SM FG OVC002 12/12 A3013 RMK AO2 LTG DSNT W
K2J9 061355Z AUTO 00000KT M1/4SM FG OVC002 12/12 A3013 RMK AO2
K2J9 061335Z AUTO 00000KT M1/4SM FG OVC002 11/11 A3013 RMK AO2
K2J9 061315Z AUTO 00000KT M1/4SM FG OVC002 10/10 A3013 RMK AO2
K2J9 061255Z AUTO 00000KT M1/4SM FG OVC002 10/10 A3012 RMK AO2
K2J9 061235Z AUTO 00000KT M1/4SM FG OVC002 10/10 A3013 RMK AO2 LTG DSNT NE AND W
K2J9 061215Z AUTO 00000KT 1/4SM FG OVC002 10/10 A3013 RMK AO2
K2J9 061155Z AUTO 00000KT M1/4SM FG OVC002 10/10 A3013 RMK AO2 LTG DSNT W AND NW
K2J9 061135Z AUTO 00000KT 1/4SM FG OVC002 10/10 A3012 RMK AO2
K2J9 061115Z AUTO 00000KT M1/4SM FG OVC002 10/10 A3012 RMK AO2
K2J9 061055Z AUTO 00000KT 1/2SM FG OVC002 10/10 A3011 RMK AO2
K2J9 061035Z AUTO 00000KT 1/4SM FG OVC002 10/10 A3012 RMK AO2
K2J9 061015Z AUTO 00000KT 1/4SM FG OVC002 10/10 A3011 RMK AO2
K2J9 060955Z AUTO 00000KT 1/4SM FG OVC002 10/10 A3011 RMK AO2
K2J9 060935Z AUTO 00000KT 1/4SM FG OVC002 10/10 A3011 RMK AO2
K2J9 060915Z AUTO 00000KT 1/4SM FG OVC002 09/09 A3012 RMK AO2
K2J9 060855Z AUTO 00000KT 1/4SM FG OVC001 10/10 A3012 RMK AO2
K2J9 060835Z AUTO 00000KT 1SM BR OVC002 10/10 A3012 RMK AO2
K2J9 060815Z AUTO 00000KT 3/4SM BR OVC001 10/10 A3012 RMK AO2
K2J9 060755Z AUTO 00000KT 1/4SM FG OVC001 10/10 A3012 RMK AO2
K2J9 060735Z AUTO 00000KT 2SM BR BKN001 10/10 A3012 RMK AO2
K2J9 060715Z AUTO 00000KT 1/2SM BR OVC001 10/10 A3013 RMK AO2
K2J9 060655Z AUTO 00000KT 3/4SM BR OVC001 10/10 A3012 RMK AO2
K2J9 060635Z AUTO 00000KT 1/2SM BR OVC001 11/11 A3012 RMK AO2
K2J9 060615Z AUTO 00000KT M1/4SM FG OVC001 11/11 A3013 RMK AO2
K2J9 060555Z AUTO 00000KT 1/4SM FG OVC001 11/11 A3014 RMK AO2
K2J9 060535Z AUTO 00000KT 9SM OVC001 11/11 A3014 RMK AO2
K2J9 060515Z AUTO 00000KT 10SM BKN001 11/11 A3015 RMK AO2
K2J9 060455Z AUTO 00000KT 10SM FEW001 FEW023 SCT029 11/11 A3015 RMK AO2
K2J9 060435Z AUTO 00000KT 10SM FEW023 BKN029 BKN040 11/11 A3015 RMK AO2
K2J9 060415Z AUTO 00000KT 10SM FEW022 BKN028 12/12 A3016 RMK AO2
K2J9 060355Z AUTO 00000KT 10SM BKN023 OVC029 12/12 A3016 RMK AO2
K2J9 060335Z AUTO 00000KT 10SM FEW021 OVC028 12/12 A3017 RMK AO2
K2J9 060315Z AUTO 00000KT 10SM FEW020 SCT029 BKN034 12/12 A3017 RMK AO2
K2J9 060255Z AUTO 00000KT 10SM FEW024 FEW033 12/12 A3017 RMK AO2
K2J9 060235Z AUTO 12004KT 10SM CLR 13/13 A3016 RMK AO2
K2J9 060215Z AUTO 00000KT 10SM CLR 13/13 A3016 RMK AO2
K2J9 060155Z AUTO 00000KT 10SM CLR 13/13 A3016 RMK AO2
K2J9 060135Z AUTO 00000KT 10SM CLR 14/14 A3015 RMK AO2
K2J9 060115Z AUTO 00000KT 10SM CLR 14/14 A3015 RMK AO2
K2J9 060055Z AUTO 00000KT 10SM CLR 14/14 A3015 RMK AO2
K2J9 060035Z AUTO 00000KT 10SM CLR 15/14 A3014 RMK AO2
K2J9 060015Z AUTO 00000KT 10SM CLR 16/15 A3014 RMK AO2
K2J9 052355Z AUTO 18004KT 10SM CLR 16/15 A3013 RMK AO2
K2J9 052335Z AUTO 17006KT 10SM CLR 16/15 A3013 RMK AO2
K2J9 052315Z AUTO 00000KT 10SM CLR 17/15 A3012 RMK AO2
K2J9 052255Z AUTO 00000KT 10SM CLR 18/15 A3012 RMK AO2
K2J9 052235Z AUTO 17003KT 10SM CLR 20/14 A3012 RMK AO2
K2J9 052215Z AUTO 18005KT 10SM CLR 21/14 A3012 RMK AO2
K2J9 052155Z AUTO 19006KT 10SM CLR 21/14 A3012 RMK AO2
K2J9 052135Z AUTO 18004KT 10SM CLR 22/14 A3012 RMK AO2
K2J9 052115Z AUTO 18006KT 10SM SCT028 SCT036 22/14 A3011 RMK AO2